logo tempoitalia

Diretta Meteo Moron De La Frontera, Spagnalunedì 31 agosto ore 07:00

Mappa
Sereno 19 °C Sereno 24 Ore: T.min 17 T.max 37
Ponente Est/Sud-Est Km/h 7.4 Punto di rugiada: 10 °C Umidità: 55% Visibilità: 10 Km
Il sole sorge alle: 07:52 Il sole tramonta alle: 20:53
31 Agosto 2026 07:00 tempo osservato: Sereno Sereno 19 55 1016 vento: Nord E/SE 7.4
31 Agosto 2026 06:30 tempo osservato: Sereno Sereno 20 52 1016 vento: Nord N 5.5
31 Agosto 2026 06:00 tempo osservato: Sereno Sereno 20 56 1016 vento: Nord N 0
31 Agosto 2026 05:30 tempo osservato: Sereno Sereno 21 52 1016 vento: Nord E 7.4
31 Agosto 2026 05:00 tempo osservato: Sereno Sereno 21 49 1016 vento: Nord E/SE 7.4
31 Agosto 2026 04:30 tempo osservato: Sereno Sereno 21 52 1016 vento: Nord N 5.5
31 Agosto 2026 04:00 tempo osservato: Sereno Sereno 22 53 1016 vento: Nord S 7.4
31 Agosto 2026 03:30 tempo osservato: Sereno Sereno 23 49 1016 vento: Nord N 1.8
31 Agosto 2026 03:00 tempo osservato: Sereno Sereno 23 49 1016 vento: Nord S/SO 7.4
31 Agosto 2026 02:30 tempo osservato: Sereno Sereno 24 47 1016 vento: Nord S/SO 7.4
31 Agosto 2026 02:00 tempo osservato: Sereno Sereno 25 44 1016 vento: Nord S/SO 9.3
31 Agosto 2026 01:30 tempo osservato: Sereno Sereno 26 44 1016 vento: Nord S 11.1
31 Agosto 2026 01:00 tempo osservato: Sereno Sereno 26 44 1016 vento: Nord S 14.8
31 Agosto 2026 00:30 tempo osservato: Sereno Sereno 26 44 1016 vento: Nord S 16.7
31 Agosto 2026 00:00 tempo osservato: Sereno Sereno 26 47 1016 vento: Nord S 13
30 Agosto 2026 23:30 tempo osservato: Sereno Sereno 26 47 1016 vento: Nord S/SO 13
30 Agosto 2026 23:00 tempo osservato: Sereno Sereno 27 42 1016 vento: Nord SO 11.1
30 Agosto 2026 22:30 tempo osservato: Sereno Sereno 28 42 1016 vento: Nord O/SO 13
30 Agosto 2026 22:00 tempo osservato: Sereno Sereno 29 37 1015 vento: Nord O/SO 11.1
30 Agosto 2026 21:30 tempo osservato: Sereno Sereno 30 30 1015 vento: Nord O/SO 13
30 Agosto 2026 21:00 tempo osservato: Sereno Sereno 32 25 1015 vento: Nord O/SO 14.8
30 Agosto 2026 20:30 tempo osservato: Sereno Sereno 34 21 1015 vento: Nord O 13
30 Agosto 2026 20:00 tempo osservato: Sereno Sereno 35 19 1015 vento: Nord O 14.8
30 Agosto 2026 19:30 tempo osservato: Sereno Sereno 36 16 1015 vento: Nord O/SO 13
30 Agosto 2026 19:00 tempo osservato: Sereno Sereno 37 17 1015 vento: Nord O 13
30 Agosto 2026 18:30 tempo osservato: Sereno Sereno 37 17 1015 vento: Nord O 14.8
30 Agosto 2026 18:00 tempo osservato: Sereno Sereno 37 17 1015 vento: Nord SO 9.3
30 Agosto 2026 17:30 tempo osservato: Sereno Sereno 37 17 1015 vento: Nord N 9.3
30 Agosto 2026 17:00 tempo osservato: Sereno Sereno 37 17 1015 vento: Nord N 13
30 Agosto 2026 16:30 tempo osservato: Sereno Sereno 37 17 1015 vento: Nord N 11.1
30 Agosto 2026 16:00 tempo osservato: Sereno Sereno 36 18 1016 vento: Nord O/SO 9.3
30 Agosto 2026 15:30 tempo osservato: Sereno Sereno 36 18 1016 vento: Nord O 13
30 Agosto 2026 15:00 tempo osservato: Sereno Sereno 36 19 1016 vento: Nord O 11.1
30 Agosto 2026 14:30 tempo osservato: Sereno Sereno 35 20 1017 vento: Nord N 5.5
30 Agosto 2026 14:00 tempo osservato: Sereno Sereno 34 21 1017 vento: Nord S/SO 7.4
30 Agosto 2026 13:30 tempo osservato: Sereno Sereno 34 23 1017 vento: Nord N 5.5
30 Agosto 2026 13:00 tempo osservato: Sereno Sereno 32 25 1017 vento: Nord N 5.5
30 Agosto 2026 12:30 tempo osservato: Sereno Sereno 31 27 1017 vento: Nord N 3.7
30 Agosto 2026 12:00 tempo osservato: Sereno Sereno 30 28 1017 vento: Nord N 3.7
30 Agosto 2026 11:30 tempo osservato: Sereno Sereno 30 28 1018 vento: Nord N 3.7
30 Agosto 2026 11:00 tempo osservato: Sereno Sereno 28 32 1017 vento: Nord N 5.5
30 Agosto 2026 10:30 tempo osservato: Sereno Sereno 27 32 1017 vento: Nord N 1.8
30 Agosto 2026 10:00 tempo osservato: Sereno Sereno 25 36 1017 vento: Nord N 0
30 Agosto 2026 09:30 tempo osservato: Sereno Sereno 23 38 1017 vento: Nord N 1.8
30 Agosto 2026 09:00 tempo osservato: Sereno Sereno 21 43 1017 vento: Nord N 3.7
30 Agosto 2026 08:30 tempo osservato: Sereno Sereno 18 51 1017 vento: Nord E/SE 7.4
30 Agosto 2026 08:00 tempo osservato: Sereno Sereno 17 55 1017 vento: Nord N 5.5